Aeroporto :
LOGIN :

Iscrizione | Disclaimer

   EN    FR    IT 

 










Sommario :    VFR   VFR Marginale   IFR   IFR Intensivo   IFR Molto Intensivo
Visibilità : 
Base nubi : 
>= 8 km
>= 3000ft
5 / 8 km
1000 / 3000 ft
1500m / 5 km
500 / 1000 ft
800 / 1500m
200 / 500 ft
< 800m
< 200 ft
Simboli :   Temporali  Nebbia  Neve Forte  Precipitazioni Forti  Vento > 20 kt
SIGMETs :   Varie  Temporali  Ghiacco  Turbolenza  Onda orograficha  Ceneri Vulcaniche






- Altitudine del aeroporto : 856 ft
- Codice IATA : VGO


LEVX - Vigo Peinador

ULTIMO METAR :
  • 200300Z 21003KT 7000 0700S BCFG BKN011 BKN028 17/17 Q1015 NOSIG

METARs OBSOLETI :
  • 200230Z VRB01KT 6000 0600S BCFG FEW002 SCT014 BKN025 17/17 Q1015 RERA NOSIG
  • 200200Z VRB02KT 5000 0500S R19/2000N R01/1100N -RA BCFG VV005 17/17 Q1015 NOSIG
  • 200130Z 19003KT 150V250 4000 0800S BCFG BKN020 BKN034 17/17 Q1015 RERA NOSIG
  • 200100Z 20004KT 170V230 3000 0500S -RA BCFG VV004 17/17 Q1015 NOSIG
  • 200030Z 20003KT 160V240 9999 FEW013 BKN026 OVC044 17/16 Q1015 NOSIG

TAF TAF LEVX
Valido dal 20 a 00 ore il 21 a 00 ore UTC


192300Z 2000/2024 VRB04KT 8000 SCT015 BKN030 TX20/2013Z TN16/2004Z
TEMPO 2000/2012 3000 RA SHRA BR BKN010 SCT030TCU
TEMPO 2000/2010 1500 BCFG BKN005
PROB30
TEMPO 2000/2009 0350 BCFG BKN001
TEMPO 2012/2018 27010KT



MetMap, La meteo Aeronautica in un colpo d'occhio ! - Copyright ORBIFLY Dicembre 2007 - Disclaimer

ORBIFLY MET'MAP TEAM :

Programmazione e sviluppo : Alexandra Zaïnal
Concezione : Baudouin d'Aumeries
Aiuto per la programmazione : Marc-Olivier Méhu
Supporto tecnico e logistico : Manuel Goepfert
Aiuto per la traduzione : Arnaldo La Scala

Contatto : metmap@orbifly.com




FONTI E CREDITI :

   NOAA